This is the latest recevied weather packets stored in our database for station/object KD5FHA. If no packets are shown the sender has not sent any weather packets the latest 10 day(s).
| Time | Temp. | Humidity | Pressure | Rain* | Wind** | Luminosity | Snow |
|---|---|---|---|---|---|---|---|
| 1777754709 | 25.56° C | 35% | 1020.7 hPa | 0 mm | - | 798 W/m² | - |
| 1777754407 | 25° C | 36% | 1020.7 hPa | 0 mm | - | 793 W/m² | - |
| 1777754104 | 25.56° C | 35% | 1020.7 hPa | 0 mm | - | 807 W/m² | - |
| 1777753801 | 25.56° C | 34% | 1020.7 hPa | 0 mm | - | 809 W/m² | - |
| 1777753496 | 25.56° C | 34% | 1020.8 hPa | 0 mm | - | 826 W/m² | - |
| 1777753195 | 25.56° C | 34% | 1021 hPa | 0 mm | - | 838 W/m² | - |
| 1777752890 | 25° C | 34% | 1021 hPa | 0 mm | - | 846 W/m² | - |
| 1777752587 | 25.56° C | 36% | 1021.1 hPa | 0 mm | - | 852 W/m² | - |
| 1777752283 | 26.67° C | 33% | 1021 hPa | 0 mm | - | 856 W/m² | - |
| 1777751981 | 25.56° C | 37% | 1021.2 hPa | 0 mm | - | 866 W/m² | - |
| 1777751678 | 25.56° C | 36% | 1021.3 hPa | 0 mm | - | 884 W/m² | - |
| 1777751374 | 25° C | 35% | 1021.2 hPa | 0 mm | - | 896 W/m² | - |
| 1777751071 | 25° C | 35% | 1021 hPa | 0 mm | - | 887 W/m² | - |
| 1777750767 | 25° C | 36% | 1021.3 hPa | 0 mm | - | 889 W/m² | - |
| 1777750465 | 25° C | 35% | 1021.4 hPa | 0 mm | - | 901 W/m² | - |
| 1777750160 | 25.56° C | 35% | 1021.3 hPa | 0 mm | - | 888 W/m² | - |
| 1777749857 | 25.56° C | 34% | 1021.3 hPa | 0 mm | - | 894 W/m² | - |
| 1777749554 | 24.44° C | 35% | 1021.5 hPa | 0 mm | - | 908 W/m² | - |
| 1777749252 | 24.44° C | 36% | 1021.5 hPa | 0 mm | - | 916 W/m² | - |
| 1777748949 | 24.44° C | 35% | 1021.4 hPa | 0 mm | - | 922 W/m² | - |
| 1777748647 | 23.89° C | 35% | 1021.6 hPa | 0 mm | - | 917 W/m² | - |
| 1777748343 | 24.44° C | 34% | 1021.6 hPa | 0 mm | - | 922 W/m² | - |
| 1777748038 | 25° C | 35% | 1021.7 hPa | 0 mm | - | 926 W/m² | - |
| 1777747735 | 23.89° C | 38% | 1021.8 hPa | 0 mm | - | 931 W/m² | - |
| 1777747430 | 23.89° C | 36% | 1021.7 hPa | 0 mm | - | 931 W/m² | - |
* Rain latest hour (hover to see other rain measurements)
** Current wind speed in m/s (hover to see current wind gust speed)